Aeroporto :
LOGIN :

Iscrizione | Disclaimer

   EN    FR    IT 

 










Sommario :    VFR   VFR Marginale   IFR   IFR Intensivo   IFR Molto Intensivo
Visibilità : 
Base nubi : 
>= 8 km
>= 3000ft
5 / 8 km
1000 / 3000 ft
1500m / 5 km
500 / 1000 ft
800 / 1500m
200 / 500 ft
< 800m
< 200 ft
Simboli :   Temporali  Nebbia  Neve Forte  Precipitazioni Forti  Vento > 20 kt
SIGMETs :   Varie  Temporali  Ghiacco  Turbolenza  Onda orograficha  Ceneri Vulcaniche






- Altitudine del aeroporto : 604 ft
- Codice IATA : LCJ


EPLL - Lodz

ULTIMO METAR :
  • 281000Z 28008KT 6000 BKN004 01/01 Q1009

METARs OBSOLETI :
  • 280930Z 27009KT 5000 -SN BR BKN004 01/01 Q1008
  • 280900Z 27007KT 5000 BR BKN004 01/01 Q1008
  • 280830Z 27004KT 3000 -SN BR BKN003 01/00 Q1007
  • 280800Z 26003KT 2500 -SN BR BKN003 00/M00 Q1007
  • 280730Z 27003KT 250V310 3000 -SN BR BKN004 M00/M01 Q1006

TAF AMD TAF EPLL
Valido dal 28 a 06 ore il 29 a 06 ore UTC


280640Z 2806/2906 VRB03KT 6000 SCT040
TEMPO 2806/2811 3000 -SN BR BKN004 OVC007
BECMG 2810/2812 29010KT
PROB40
TEMPO 2812/2819 -SHRA SCT020TCU
TEMPO 2821/2906 BKN005



MetMap, La meteo Aeronautica in un colpo d'occhio ! - Copyright ORBIFLY Dicembre 2007 - Disclaimer

ORBIFLY MET'MAP TEAM :

Programmazione e sviluppo : Alexandra Zaïnal
Concezione : Baudouin d'Aumeries
Aiuto per la programmazione : Marc-Olivier Méhu
Supporto tecnico e logistico : Manuel Goepfert
Aiuto per la traduzione : Arnaldo La Scala

Contatto : metmap@orbifly.com




FONTI E CREDITI :

   NOAA